createdAt,value
2018-06-20T00:00:06.372Z,1015.40
2018-06-20T00:01:06.329Z,1015.41
2018-06-20T00:02:59.159Z,1015.40
2018-06-20T00:03:59.115Z,1015.41
2018-06-20T00:05:52.220Z,1015.39
2018-06-20T00:06:52.152Z,1015.39
2018-06-20T00:08:45.188Z,1015.37
2018-06-20T00:09:45.134Z,1015.34
2018-06-20T00:11:38.083Z,1015.32
2018-06-20T00:12:38.059Z,1015.29
2018-06-20T00:14:31.085Z,1015.26
2018-06-20T00:15:31.024Z,1015.28
2018-06-20T00:17:23.989Z,1015.24
2018-06-20T00:18:23.941Z,1015.20
2018-06-20T00:20:16.884Z,1015.18
2018-06-20T00:21:16.844Z,1015.15
2018-06-20T00:23:09.956Z,1015.18
2018-06-20T00:24:09.898Z,1015.17
2018-06-20T00:26:02.856Z,1015.21
2018-06-20T00:27:02.806Z,1015.20
2018-06-20T00:28:55.830Z,1015.16
2018-06-20T00:29:55.785Z,1015.16
2018-06-20T00:31:48.606Z,1015.15
2018-06-20T00:32:48.585Z,1015.11
2018-06-20T00:34:41.598Z,1015.16
2018-06-20T00:35:41.533Z,1015.19
2018-06-20T00:37:34.475Z,1015.21
2018-06-20T00:38:34.446Z,1015.21
2018-06-20T00:40:27.619Z,1015.25
2018-06-20T00:41:27.498Z,1015.24
2018-06-20T00:43:20.460Z,1015.29
2018-06-20T00:44:20.425Z,1015.24
2018-06-20T00:46:13.256Z,1015.23
2018-06-20T00:47:13.216Z,1015.18
2018-06-20T00:49:06.045Z,1015.15
2018-06-20T00:50:05.989Z,1015.16
2018-06-20T00:51:59.099Z,1015.17
2018-06-20T00:52:59.063Z,1015.14
2018-06-20T00:54:52.042Z,1015.09
2018-06-20T00:55:51.985Z,1015.05
2018-06-20T00:57:44.939Z,1015.09
2018-06-20T00:58:44.900Z,1015.05
2018-06-20T01:00:37.815Z,1015.08
2018-06-20T01:01:37.768Z,1015.04
2018-06-20T01:03:30.713Z,1015.04
2018-06-20T01:04:30.688Z,1015.03
2018-06-20T01:06:23.528Z,1015.06
2018-06-20T01:07:23.468Z,1015.04
2018-06-20T01:09:16.473Z,1015.03
2018-06-20T01:10:16.441Z,1015.06
2018-06-20T01:12:09.476Z,1015.01
2018-06-20T01:13:09.368Z,1015.02
2018-06-20T01:15:02.367Z,1014.97
2018-06-20T01:16:02.318Z,1015.01
2018-06-20T01:17:55.270Z,1014.96
2018-06-20T01:18:55.231Z,1014.94
2018-06-20T01:20:48.572Z,1014.91
2018-06-20T01:21:48.511Z,1014.93
2018-06-20T01:23:41.467Z,1014.95
2018-06-20T01:24:41.433Z,1014.92
2018-06-20T01:26:34.290Z,1014.94
2018-06-20T01:27:34.241Z,1014.92
2018-06-20T01:29:27.192Z,1014.92
2018-06-20T01:30:27.157Z,1014.93
2018-06-20T01:32:19.992Z,1014.94
2018-06-20T01:33:19.941Z,1014.91
2018-06-20T01:35:12.902Z,1014.91
2018-06-20T01:36:12.877Z,1014.90
2018-06-20T01:38:06.013Z,1014.93
2018-06-20T01:39:05.932Z,1014.91
2018-06-20T01:40:58.883Z,1014.91
2018-06-20T01:41:58.855Z,1014.91
2018-06-20T01:43:51.823Z,1014.87
2018-06-20T01:44:51.768Z,1014.91
2018-06-20T01:46:44.583Z,1014.84
2018-06-20T01:47:44.554Z,1014.84
2018-06-20T01:49:37.579Z,1014.87
2018-06-20T01:50:37.474Z,1014.85
2018-06-20T01:52:30.444Z,1014.82
2018-06-20T01:53:30.393Z,1014.76
2018-06-20T01:55:23.367Z,1014.77
2018-06-20T01:56:23.324Z,1014.76
2018-06-20T01:58:16.363Z,1014.78
2018-06-20T01:59:16.304Z,1014.79
2018-06-20T02:01:09.248Z,1014.78
2018-06-20T02:02:09.217Z,1014.78
2018-06-20T02:04:02.189Z,1014.79
2018-06-20T02:05:02.128Z,1014.77
2018-06-20T02:06:54.953Z,1014.81
2018-06-20T02:07:54.925Z,1014.78
2018-06-20T02:09:47.890Z,1014.78
2018-06-20T02:10:47.844Z,1014.79
2018-06-20T02:12:40.803Z,1014.77
2018-06-20T02:13:40.764Z,1014.74
2018-06-20T02:15:33.777Z,1014.73
2018-06-20T02:16:33.726Z,1014.77
2018-06-20T02:18:26.560Z,1014.75
2018-06-20T02:19:26.516Z,1014.76
2018-06-20T02:21:19.530Z,1014.77
2018-06-20T02:22:19.483Z,1014.76
2018-06-20T02:24:12.305Z,1014.71
2018-06-20T02:25:12.259Z,1014.72
2018-06-20T02:27:05.233Z,1014.68
2018-06-20T02:28:05.203Z,1014.67
2018-06-20T02:29:58.007Z,1014.69
2018-06-20T02:30:57.989Z,1014.65
2018-06-20T02:32:50.952Z,1014.65
2018-06-20T02:33:50.902Z,1014.61
2018-06-20T02:35:43.859Z,1014.63
2018-06-20T02:36:43.864Z,1014.61
2018-06-20T02:38:36.933Z,1014.62
2018-06-20T02:39:36.876Z,1014.60
2018-06-20T02:41:29.836Z,1014.64
2018-06-20T02:42:29.793Z,1014.63
2018-06-20T02:44:22.765Z,1014.60
2018-06-20T02:45:22.748Z,1014.61
2018-06-20T02:47:15.827Z,1014.60
2018-06-20T02:48:15.770Z,1014.60
2018-06-20T02:50:08.581Z,1014.56
2018-06-20T02:51:08.554Z,1014.56
2018-06-20T02:53:01.387Z,1014.59
2018-06-20T02:54:01.339Z,1014.57
2018-06-20T02:55:54.271Z,1014.53
2018-06-20T02:56:54.250Z,1014.55
2018-06-20T02:58:47.430Z,1014.55
2018-06-20T02:59:47.322Z,1014.53
2018-06-20T03:01:40.279Z,1014.56
2018-06-20T03:02:40.233Z,1014.54
2018-06-20T03:04:33.202Z,1014.53
2018-06-20T03:05:33.147Z,1014.51
2018-06-20T03:07:26.277Z,1014.49
2018-06-20T03:08:26.202Z,1014.51
2018-06-20T03:10:19.202Z,1014.49
2018-06-20T03:11:19.126Z,1014.53
2018-06-20T03:13:11.965Z,1014.54
2018-06-20T03:14:11.908Z,1014.53
2018-06-20T03:16:05.025Z,1014.50
2018-06-20T03:17:04.981Z,1014.50
2018-06-20T03:18:57.953Z,1014.50
2018-06-20T03:19:57.906Z,1014.50
2018-06-20T03:21:50.851Z,1014.46
2018-06-20T03:22:50.827Z,1014.47
2018-06-20T03:24:44.082Z,1014.42
2018-06-20T03:25:44.039Z,1014.46
2018-06-20T03:27:37.004Z,1014.44
2018-06-20T03:28:36.980Z,1014.43
2018-06-20T03:30:30.109Z,1014.41
2018-06-20T03:31:30.016Z,1014.45
2018-06-20T03:33:22.977Z,1014.42
2018-06-20T03:34:22.943Z,1014.37
2018-06-20T03:36:15.908Z,1014.40
2018-06-20T03:37:15.864Z,1014.40
2018-06-20T03:39:08.989Z,1014.31
2018-06-20T03:40:08.938Z,1014.33
2018-06-20T03:42:01.834Z,1014.33
2018-06-20T03:43:01.788Z,1014.35
2018-06-20T03:44:54.737Z,1014.35
2018-06-20T03:45:54.720Z,1014.34
2018-06-20T03:47:47.938Z,1014.32
2018-06-20T03:48:47.866Z,1014.33
2018-06-20T03:50:40.854Z,1014.31
2018-06-20T03:51:40.832Z,1014.30
2018-06-20T03:53:33.752Z,1014.29
2018-06-20T03:54:33.721Z,1014.29
2018-06-20T03:56:26.568Z,1014.25
2018-06-20T03:57:26.503Z,1014.26
2018-06-20T03:59:19.467Z,1014.25
2018-06-20T04:00:19.429Z,1014.26
2018-06-20T04:02:12.282Z,1014.26
2018-06-20T04:03:12.213Z,1014.25
2018-06-20T04:05:05.162Z,1014.21
2018-06-20T04:06:05.131Z,1014.21
2018-06-20T04:07:58.037Z,1014.23
2018-06-20T04:08:57.996Z,1014.19
2018-06-20T04:10:50.933Z,1014.24
2018-06-20T04:11:50.893Z,1014.26
2018-06-20T04:13:43.860Z,1014.21
2018-06-20T04:14:43.907Z,1014.29
2018-06-20T04:16:36.772Z,1014.27
2018-06-20T04:17:36.729Z,1014.28
2018-06-20T04:19:29.709Z,1014.25
2018-06-20T04:20:29.664Z,1014.26
2018-06-20T04:22:22.504Z,1014.25
2018-06-20T04:23:22.454Z,1014.26
2018-06-20T04:25:15.412Z,1014.28
2018-06-20T04:26:15.377Z,1014.29
2018-06-20T04:28:08.567Z,1014.27
2018-06-20T04:29:08.452Z,1014.26
2018-06-20T04:31:01.411Z,1014.26
2018-06-20T04:32:01.371Z,1014.26
2018-06-20T04:33:54.363Z,1014.25
2018-06-20T04:34:54.328Z,1014.24
2018-06-20T04:36:47.441Z,1014.22
2018-06-20T04:37:47.363Z,1014.25
2018-06-20T04:39:40.337Z,1014.24
2018-06-20T04:40:40.292Z,1014.23
2018-06-20T04:42:33.245Z,1014.25
2018-06-20T04:43:33.204Z,1014.27
2018-06-20T04:45:26.048Z,1014.22
2018-06-20T04:46:26.016Z,1014.26
2018-06-20T04:48:18.984Z,1014.26
2018-06-20T04:49:18.928Z,1014.23
2018-06-20T04:51:11.908Z,1014.19
2018-06-20T04:52:11.886Z,1014.19
2018-06-20T04:54:04.948Z,1014.15
2018-06-20T04:55:04.904Z,1014.20
2018-06-20T04:56:57.861Z,1014.17
2018-06-20T04:57:57.828Z,1014.16
2018-06-20T04:59:50.805Z,1014.19
2018-06-20T05:00:50.745Z,1014.15
2018-06-20T05:02:43.843Z,1014.16
2018-06-20T05:03:43.792Z,1014.17
2018-06-20T05:05:36.755Z,1014.16
2018-06-20T05:06:36.707Z,1014.14
2018-06-20T05:08:29.671Z,1014.15
2018-06-20T05:09:29.614Z,1014.21
2018-06-20T05:11:22.660Z,1014.21
2018-06-20T05:12:22.612Z,1014.22
2018-06-20T05:14:15.585Z,1014.22
2018-06-20T05:15:15.536Z,1014.26
2018-06-20T05:17:08.489Z,1014.21
2018-06-20T05:18:08.459Z,1014.26
2018-06-20T05:20:01.420Z,1014.21
2018-06-20T05:21:01.376Z,1014.24
2018-06-20T05:22:54.259Z,1014.24
2018-06-20T05:23:54.167Z,1014.26
2018-06-20T05:25:47.154Z,1014.20
2018-06-20T05:26:47.100Z,1014.25
2018-06-20T05:28:40.060Z,1014.21
2018-06-20T05:29:40.030Z,1014.20
2018-06-20T05:31:33.219Z,1014.18
2018-06-20T05:32:33.081Z,1014.16
2018-06-20T05:34:26.037Z,1014.19
2018-06-20T05:35:26.002Z,1014.22
2018-06-20T05:37:18.987Z,1014.24
2018-06-20T05:38:18.923Z,1014.20
2018-06-20T05:40:12.034Z,1014.21
2018-06-20T05:41:11.980Z,1014.19
2018-06-20T05:43:04.939Z,1014.16
2018-06-20T05:44:04.903Z,1014.14
2018-06-20T05:45:57.885Z,1014.13
2018-06-20T05:46:57.831Z,1014.12
2018-06-20T05:48:50.914Z,1014.07
2018-06-20T05:49:50.885Z,1014.10
2018-06-20T05:51:43.842Z,1014.07
2018-06-20T05:52:43.793Z,1014.12
2018-06-20T05:54:36.735Z,1014.06
2018-06-20T05:55:36.706Z,1014.12
2018-06-20T05:57:29.555Z,1014.14
2018-06-20T05:58:29.495Z,1014.14
2018-06-20T06:00:22.476Z,1014.15
2018-06-20T06:01:22.452Z,1014.16
2018-06-20T06:03:15.285Z,1014.17
2018-06-20T06:04:15.245Z,1014.17
2018-06-20T06:06:08.196Z,1014.17
2018-06-20T06:07:08.152Z,1014.15
2018-06-20T06:09:01.278Z,1014.15
2018-06-20T06:10:01.209Z,1014.15
2018-06-20T06:11:54.178Z,1014.18
2018-06-20T06:12:54.137Z,1014.19
2018-06-20T06:14:47.096Z,1014.14
2018-06-20T06:15:47.066Z,1014.18
2018-06-20T06:17:40.172Z,1014.18
2018-06-20T06:18:40.068Z,1014.17
2018-06-20T06:20:33.019Z,1014.13
2018-06-20T06:21:32.983Z,1014.14
2018-06-20T06:23:25.954Z,1014.08
2018-06-20T06:24:25.886Z,1014.06
2018-06-20T06:26:18.991Z,1014.08
2018-06-20T06:27:18.911Z,1014.07
2018-06-20T06:29:11.904Z,1014.04
2018-06-20T06:30:11.837Z,1014.05
2018-06-20T06:32:04.803Z,1014.02
2018-06-20T06:33:04.755Z,1014.01
2018-06-20T06:34:57.818Z,1014.05
2018-06-20T06:35:57.784Z,1014.03
2018-06-20T06:37:50.754Z,1014.03
2018-06-20T06:38:50.703Z,1014.06
2018-06-20T06:40:43.658Z,1014.05
2018-06-20T06:41:43.627Z,1014.06
2018-06-20T06:43:36.727Z,1014.07
2018-06-20T06:44:36.608Z,1014.05
2018-06-20T06:46:29.570Z,1014.05
2018-06-20T06:47:29.537Z,1014.07
2018-06-20T06:49:22.509Z,1014.04
2018-06-20T06:50:22.454Z,1014.05
2018-06-20T06:52:15.278Z,1014.06
2018-06-20T06:53:15.238Z,1014.08
2018-06-20T06:55:08.229Z,1014.02
2018-06-20T06:56:08.167Z,1014.06
2018-06-20T06:58:01.117Z,1014.02
2018-06-20T06:59:01.083Z,1014.00
2018-06-20T07:00:54.051Z,1013.99
2018-06-20T07:01:54.004Z,1013.97
2018-06-20T07:03:46.988Z,1013.94
2018-06-20T07:04:46.957Z,1013.95
2018-06-20T07:06:39.930Z,1013.93
2018-06-20T07:07:39.867Z,1013.93
2018-06-20T07:09:32.838Z,1013.91
2018-06-20T07:10:32.788Z,1013.91
2018-06-20T07:12:25.719Z,1013.93
2018-06-20T07:13:25.680Z,1013.96
2018-06-20T07:15:18.634Z,1013.96
2018-06-20T07:16:18.574Z,1013.96
2018-06-20T07:18:11.399Z,1013.92
2018-06-20T07:19:11.359Z,1013.97
2018-06-20T07:21:04.210Z,1014.00
2018-06-20T07:22:04.168Z,1013.97
2018-06-20T07:23:57.295Z,1013.94
2018-06-20T07:24:57.266Z,1013.89
2018-06-20T07:26:50.089Z,1013.86
2018-06-20T07:27:50.045Z,1013.87
2018-06-20T07:29:43.010Z,1013.87
2018-06-20T07:30:42.970Z,1013.87
2018-06-20T07:32:35.961Z,1013.86
2018-06-20T07:33:35.914Z,1013.88
2018-06-20T07:35:28.875Z,1013.88
2018-06-20T07:36:28.826Z,1013.94
2018-06-20T07:38:21.851Z,1013.93
2018-06-20T07:39:21.804Z,1013.93
2018-06-20T07:41:15.025Z,1013.92
2018-06-20T07:42:14.961Z,1013.86
2018-06-20T07:44:07.929Z,1013.90
2018-06-20T07:45:07.895Z,1013.87
2018-06-20T07:47:00.836Z,1013.89
2018-06-20T07:48:00.813Z,1013.85
2018-06-20T07:49:53.943Z,1013.83
2018-06-20T07:50:53.906Z,1013.86
2018-06-20T07:52:46.888Z,1013.84
2018-06-20T07:53:46.861Z,1013.88
2018-06-20T07:55:40.265Z,1013.90
2018-06-20T07:56:40.222Z,1013.92
2018-06-20T07:58:33.051Z,1013.85
2018-06-20T07:59:33.016Z,1013.87
2018-06-20T08:01:25.860Z,1013.88
2018-06-20T08:02:25.809Z,1013.85
2018-06-20T08:04:18.959Z,1013.87
2018-06-20T08:05:18.934Z,1013.87
2018-06-20T08:07:11.880Z,1013.84
2018-06-20T08:08:11.840Z,1013.83
2018-06-20T08:10:04.664Z,1013.88
2018-06-20T08:11:04.632Z,1013.81
2018-06-20T08:12:57.777Z,1013.76
2018-06-20T08:13:57.720Z,1013.71
2018-06-20T08:15:50.697Z,1013.76
2018-06-20T08:16:50.643Z,1013.75
2018-06-20T08:18:43.653Z,1013.77
2018-06-20T08:19:43.601Z,1013.77
2018-06-20T08:21:36.745Z,1013.78
2018-06-20T08:22:36.670Z,1013.73
2018-06-20T08:24:29.621Z,1013.74
2018-06-20T08:25:29.610Z,1013.75
2018-06-20T08:27:22.613Z,1013.75
2018-06-20T08:28:22.546Z,1013.73
2018-06-20T08:30:15.447Z,1013.71
2018-06-20T08:31:15.425Z,1013.74
2018-06-20T08:33:08.446Z,1013.73
2018-06-20T08:34:08.406Z,1013.71
2018-06-20T08:36:01.381Z,1013.74
2018-06-20T08:37:01.346Z,1013.74
2018-06-20T08:38:54.460Z,1013.74
2018-06-20T08:39:54.422Z,1013.72
2018-06-20T08:41:47.458Z,1013.77
2018-06-20T08:42:47.396Z,1013.77
2018-06-20T08:44:40.358Z,1013.76
2018-06-20T08:45:40.327Z,1013.77
2018-06-20T08:47:33.337Z,1013.75
2018-06-20T08:48:33.307Z,1013.72
2018-06-20T08:50:26.271Z,1013.69
2018-06-20T08:51:26.246Z,1013.65
2018-06-20T08:53:19.237Z,1013.65
2018-06-20T08:54:19.197Z,1013.61
2018-06-20T08:56:12.191Z,1013.60
2018-06-20T08:57:12.156Z,1013.59
2018-06-20T08:59:05.144Z,1013.57
2018-06-20T09:00:05.111Z,1013.53
2018-06-20T09:01:57.965Z,1013.49
2018-06-20T09:02:57.942Z,1013.54
2018-06-20T09:04:50.818Z,1013.50
2018-06-20T09:40:26.602Z,1013.30
2018-06-20T09:41:26.531Z,1013.29
2018-06-20T09:43:19.351Z,1013.29
2018-06-20T09:44:19.311Z,1013.35
2018-06-20T09:46:12.287Z,1013.27
2018-06-20T09:47:12.232Z,1013.30
2018-06-20T09:49:05.368Z,1013.31
2018-06-20T09:50:05.302Z,1013.31
2018-06-20T09:51:58.153Z,1013.28
2018-06-20T09:52:58.088Z,1013.30
2018-06-20T09:54:51.010Z,1013.23
2018-06-20T09:55:50.991Z,1013.30
2018-06-20T09:57:43.941Z,1013.41
2018-06-20T09:58:43.894Z,1013.55
2018-06-20T10:00:36.897Z,1013.71
2018-06-20T10:01:36.847Z,1013.79
2018-06-20T10:03:29.740Z,1013.85
2018-06-20T10:04:29.709Z,1013.88
2018-06-20T10:06:22.716Z,1013.82
2018-06-20T10:07:22.632Z,1013.81
2018-06-20T10:09:15.570Z,1013.79
2018-06-20T10:10:15.532Z,1013.79
2018-06-20T10:12:08.408Z,1013.78
2018-06-20T10:13:08.369Z,1013.74
2018-06-20T10:15:01.305Z,1013.70
2018-06-20T10:16:01.283Z,1013.80
2018-06-20T10:17:54.243Z,1013.64
2018-06-20T10:18:54.202Z,1013.77
2018-06-20T10:20:47.228Z,1013.75
2018-06-20T10:21:47.189Z,1013.78
2018-06-20T10:23:40.159Z,1013.78
2018-06-20T10:24:40.109Z,1013.64
2018-06-20T10:26:33.069Z,1013.69
2018-06-20T10:27:33.054Z,1013.71
2018-06-20T10:29:26.092Z,1013.73
2018-06-20T10:30:26.001Z,1013.70
2018-06-20T10:32:18.999Z,1013.68
2018-06-20T10:33:18.936Z,1013.45
2018-06-20T10:35:11.896Z,1013.07
2018-06-20T10:36:11.888Z,1012.44
2018-06-20T10:38:04.738Z,1013.62
2018-06-20T10:39:04.704Z,1013.51
2018-06-20T10:40:57.538Z,1013.66
2018-06-20T10:41:57.535Z,1013.66
2018-06-20T10:43:50.494Z,1013.58
2018-06-20T10:44:50.460Z,1013.62
2018-06-20T10:46:43.426Z,1013.55
2018-06-20T10:47:43.409Z,1013.37
2018-06-20T10:49:36.409Z,1013.52
2018-06-20T10:50:36.344Z,1013.42
2018-06-20T10:52:29.314Z,1013.26
2018-06-20T10:53:29.305Z,1013.28
2018-06-20T10:55:22.165Z,1013.32
2018-06-20T10:56:22.149Z,1013.42
2018-06-20T10:58:14.995Z,1013.39
2018-06-20T10:59:14.957Z,1013.22
2018-06-20T11:01:07.928Z,1013.18
2018-06-20T11:02:07.894Z,1013.24
2018-06-20T11:04:00.864Z,1013.30
2018-06-20T11:05:00.830Z,1013.24
2018-06-20T11:06:53.810Z,1013.13
2018-06-20T11:07:53.770Z,1013.11
2018-06-20T11:09:46.761Z,1013.24
2018-06-20T11:10:46.714Z,1013.21
2018-06-20T11:12:39.656Z,1013.02
2018-06-20T11:13:39.645Z,1013.08
2018-06-20T11:15:32.622Z,1013.03
2018-06-20T11:16:32.585Z,1013.15
2018-06-20T11:18:25.573Z,1013.18
2018-06-20T11:19:25.551Z,1013.19
2018-06-20T11:21:18.522Z,1013.21
2018-06-20T11:22:18.485Z,1013.17
2018-06-20T11:24:11.456Z,1013.01
2018-06-20T11:25:11.426Z,1013.05
2018-06-20T11:27:04.342Z,1012.98
2018-06-20T11:28:04.283Z,1013.11
2018-06-20T11:29:57.235Z,1012.62
2018-06-20T11:30:57.223Z,1012.66
2018-06-20T11:32:50.210Z,1012.54
2018-06-20T11:33:50.155Z,1012.19
2018-06-20T11:35:43.302Z,1012.90
2018-06-20T11:36:43.242Z,1012.88
2018-06-20T11:38:36.206Z,1012.64
2018-06-20T11:39:36.171Z,1012.85
2018-06-20T11:41:29.145Z,1012.83
2018-06-20T11:42:29.108Z,1012.66
2018-06-20T11:44:22.192Z,1012.57
2018-06-20T11:45:22.129Z,1012.75
2018-06-20T11:47:15.071Z,1012.67
2018-06-20T11:48:15.066Z,1012.66
2018-06-20T11:50:08.028Z,1012.43
2018-06-20T11:51:08.011Z,1012.38
2018-06-20T11:53:00.980Z,1012.46
2018-06-20T11:54:00.960Z,1012.34
2018-06-20T11:55:53.942Z,1012.43
2018-06-20T11:56:53.909Z,1012.32
2018-06-20T11:58:47.275Z,1012.45
2018-06-20T11:59:47.235Z,1012.49
2018-06-20T12:01:40.222Z,1012.62
2018-06-20T12:02:40.189Z,1012.60
2018-06-20T12:04:33.043Z,1012.53
2018-06-20T12:05:33.003Z,1012.58
2018-06-20T12:07:25.892Z,1012.48
2018-06-20T12:08:25.879Z,1012.33
2018-06-20T12:10:18.863Z,1012.27
2018-06-20T12:11:18.807Z,1012.22
2018-06-20T12:13:11.792Z,1012.01
2018-06-20T12:14:11.756Z,1012.36
2018-06-20T12:16:04.856Z,1012.16
2018-06-20T12:17:04.839Z,1012.30
2018-06-20T12:18:57.814Z,1012.03
2018-06-20T12:19:57.782Z,1011.97
2018-06-20T12:21:50.699Z,1012.08
2018-06-20T12:22:50.667Z,1012.01
2018-06-20T12:24:43.853Z,1011.65
2018-06-20T12:25:43.773Z,1011.99
2018-06-20T12:27:36.728Z,1012.15
2018-06-20T12:28:36.708Z,1012.03
2018-06-20T12:30:29.679Z,1011.72
2018-06-20T12:31:29.664Z,1011.80
2018-06-20T12:33:22.501Z,1011.99
2018-06-20T12:34:22.478Z,1011.94
2018-06-20T12:36:15.348Z,1012.02
2018-06-20T12:37:15.315Z,1012.02
2018-06-20T12:39:08.335Z,1012.02
2018-06-20T12:40:08.364Z,1012.15
2018-06-20T12:42:01.499Z,1012.14
2018-06-20T12:43:01.482Z,1011.94
2018-06-20T12:44:54.488Z,1011.88
2018-06-20T12:45:54.436Z,1012.10
2018-06-20T12:47:47.389Z,1011.86
2018-06-20T12:48:47.379Z,1011.86
2018-06-20T12:50:40.392Z,1011.98
2018-06-20T12:51:40.366Z,1011.80
2018-06-20T12:53:33.363Z,1011.96
2018-06-20T12:54:33.334Z,1012.01
2018-06-20T12:56:26.299Z,1011.92
2018-06-20T12:57:26.295Z,1012.02
2018-06-20T12:59:19.258Z,1011.99
2018-06-20T13:00:19.218Z,1012.06
2018-06-20T13:02:12.188Z,1011.91
2018-06-20T13:03:12.149Z,1011.99
2018-06-20T13:05:05.123Z,1011.85
2018-06-20T13:06:05.093Z,1011.82
2018-06-20T13:07:58.058Z,1011.87
2018-06-20T13:08:58.048Z,1011.80
2018-06-20T13:10:51.011Z,1011.55
2018-06-20T13:11:50.976Z,1011.68
2018-06-20T13:13:43.939Z,1011.87
2018-06-20T13:14:43.914Z,1011.71
2018-06-20T13:16:36.784Z,1011.29
2018-06-20T13:17:36.757Z,1011.66
2018-06-20T13:19:29.790Z,1011.85
2018-06-20T13:20:29.772Z,1011.81
2018-06-20T13:22:22.755Z,1011.75
2018-06-20T13:23:22.714Z,1011.68
2018-06-20T13:25:15.640Z,1011.60
2018-06-20T13:26:15.595Z,1011.69
2018-06-20T13:28:08.564Z,1011.82
2018-06-20T13:29:08.556Z,1011.74
2018-06-20T13:31:01.422Z,1011.46
2018-06-20T13:32:01.381Z,1011.31
2018-06-20T13:33:54.376Z,1011.50
2018-06-20T13:34:54.326Z,1011.55
2018-06-20T13:36:47.284Z,1010.89
2018-06-20T13:37:47.271Z,1010.84
2018-06-20T13:39:40.374Z,1010.72
2018-06-20T13:40:40.236Z,1011.35
2018-06-20T13:42:33.493Z,1011.58
2018-06-20T13:43:33.478Z,1011.59
2018-06-20T13:45:26.447Z,1011.66
2018-06-20T13:46:26.412Z,1011.23
2018-06-20T13:48:19.362Z,1011.11
2018-06-20T13:49:19.354Z,1011.00
2018-06-20T13:51:12.246Z,1011.21
2018-06-20T13:52:12.217Z,1010.98
2018-06-20T13:54:05.152Z,1011.16
2018-06-20T13:55:05.116Z,1011.02
2018-06-20T13:56:58.093Z,1011.04
2018-06-20T13:57:58.042Z,1011.51
2018-06-20T13:59:51.228Z,1011.62
2018-06-20T14:00:51.131Z,1011.60
2018-06-20T14:02:44.078Z,1011.62
2018-06-20T14:03:44.069Z,1011.41
2018-06-20T14:05:37.026Z,1011.33
2018-06-20T14:06:36.972Z,1011.31
2018-06-20T14:08:29.838Z,1011.19
2018-06-20T14:09:29.792Z,1011.38
2018-06-20T14:11:22.796Z,1011.55
2018-06-20T14:12:22.723Z,1011.43
2018-06-20T14:14:15.682Z,1011.34
2018-06-20T14:15:15.660Z,1011.31
2018-06-20T14:17:08.619Z,1010.78
2018-06-20T14:18:08.596Z,1010.89
2018-06-20T14:20:01.582Z,1011.27
2018-06-20T14:21:01.537Z,1011.37
2018-06-20T14:22:54.482Z,1011.04
2018-06-20T14:23:54.469Z,1011.18
2018-06-20T14:25:47.437Z,1011.30
2018-06-20T14:26:47.402Z,1011.25
2018-06-20T14:28:40.408Z,1011.25
2018-06-20T14:29:40.466Z,1011.19
2018-06-20T14:31:33.366Z,1011.31
2018-06-20T14:32:33.323Z,1011.29
2018-06-20T14:34:26.301Z,1011.43
2018-06-20T14:35:26.270Z,1011.30
2018-06-20T14:37:19.272Z,1011.19
2018-06-20T14:38:19.203Z,1010.82
2018-06-20T14:40:12.079Z,1010.80
2018-06-20T14:41:12.020Z,1010.78
2018-06-20T14:43:04.984Z,1010.98
2018-06-20T14:44:04.971Z,1011.25
2018-06-20T14:45:58.157Z,1011.01
2018-06-20T14:46:58.058Z,1010.83
2018-06-20T14:48:51.023Z,1010.90
2018-06-20T14:49:50.993Z,1011.10
2018-06-20T14:51:43.858Z,1010.92
2018-06-20T14:52:43.842Z,1011.23
2018-06-20T14:54:37.021Z,1011.09
2018-06-20T14:55:36.896Z,1011.22
2018-06-20T14:57:29.886Z,1010.83
2018-06-20T14:58:29.840Z,1011.14
2018-06-20T15:00:22.829Z,1011.02
2018-06-20T15:01:22.783Z,1011.21
2018-06-20T15:03:15.696Z,1010.86
2018-06-20T15:04:15.685Z,1010.76
2018-06-20T15:06:08.534Z,1011.11
2018-06-20T15:07:08.490Z,1010.95
2018-06-20T15:09:01.445Z,1010.89
2018-06-20T15:10:01.426Z,1011.01
2018-06-20T15:11:54.288Z,1010.81
2018-06-20T15:12:54.238Z,1010.98
2018-06-20T15:14:47.133Z,1011.03
2018-06-20T15:15:47.118Z,1011.03
2018-06-20T15:17:40.096Z,1010.87
2018-06-20T15:18:40.064Z,1010.96
2018-06-20T15:20:33.101Z,1010.56
2018-06-20T15:21:33.205Z,1010.64
2018-06-20T15:23:25.946Z,1010.75
2018-06-20T15:24:25.908Z,1010.67
2018-06-20T15:26:18.874Z,1010.54
2018-06-20T15:27:18.828Z,1010.49
2018-06-20T15:29:11.821Z,1010.76
2018-06-20T15:30:11.854Z,1010.86
2018-06-20T15:32:04.949Z,1010.80
2018-06-20T15:33:04.895Z,1010.84
2018-06-20T15:34:57.875Z,1010.80
2018-06-20T15:35:57.840Z,1010.83
2018-06-20T15:37:50.686Z,1010.76
2018-06-20T15:38:50.663Z,1010.81
2018-06-20T15:40:43.499Z,1010.67
2018-06-20T15:41:43.484Z,1010.41
2018-06-20T15:43:36.506Z,1010.49
2018-06-20T15:44:36.507Z,1010.60
2018-06-20T15:46:29.444Z,1010.65
2018-06-20T15:47:29.434Z,1010.55
2018-06-20T15:49:22.791Z,1010.65
2018-06-20T15:50:22.636Z,1010.57
2018-06-20T15:52:15.621Z,1010.57
2018-06-20T15:53:15.594Z,1010.57
2018-06-20T15:55:08.575Z,1010.39
2018-06-20T15:56:08.546Z,1010.47
2018-06-20T15:58:01.466Z,1010.47
2018-06-20T15:59:01.445Z,1010.57
2018-06-20T16:00:54.916Z,1010.48
2018-06-20T16:01:54.264Z,1010.45
2018-06-20T16:03:47.219Z,1010.41
2018-06-20T16:04:47.281Z,1010.35
2018-06-20T16:06:40.289Z,1010.24
2018-06-20T16:07:40.261Z,1010.31
2018-06-20T16:09:33.232Z,1010.27
2018-06-20T16:10:33.192Z,1010.23
2018-06-20T16:12:26.170Z,1010.29
2018-06-20T16:13:26.140Z,1010.24
2018-06-20T16:15:19.329Z,1010.25
2018-06-20T16:16:19.217Z,1010.16
2018-06-20T16:18:12.164Z,1010.28
2018-06-20T16:19:12.160Z,1010.20
2018-06-20T16:21:05.140Z,1010.29
2018-06-20T16:22:05.086Z,1010.17
2018-06-20T16:23:58.159Z,1010.15
2018-06-20T16:24:58.135Z,1010.21
2018-06-20T16:26:51.127Z,1010.12
2018-06-20T16:27:51.070Z,1010.19
2018-06-20T16:29:44.040Z,1010.13
2018-06-20T16:30:44.020Z,1010.13
2018-06-20T16:32:37.032Z,1010.13
2018-06-20T16:33:36.996Z,1010.14
2018-06-20T16:35:29.941Z,1010.10
2018-06-20T16:36:29.927Z,1010.08
2018-06-20T16:38:22.905Z,1010.13
2018-06-20T16:39:22.865Z,1010.04
2018-06-20T16:41:15.736Z,1010.03
2018-06-20T16:42:15.688Z,1010.07
2018-06-20T16:44:08.679Z,1010.13
2018-06-20T16:45:08.642Z,1010.05
2018-06-20T16:47:01.621Z,1010.10
2018-06-20T16:48:01.580Z,1010.12
2018-06-20T16:49:54.700Z,1010.08
2018-06-20T16:50:54.671Z,1010.05
2018-06-20T16:52:47.657Z,1010.01
2018-06-20T16:53:47.614Z,1009.90
2018-06-20T16:55:40.582Z,1009.94
2018-06-20T16:56:40.561Z,1009.98
2018-06-20T16:58:33.592Z,1009.92
2018-06-20T16:59:33.472Z,1009.96
2018-06-20T17:01:26.381Z,1009.82
2018-06-20T17:02:26.371Z,1009.90
2018-06-20T17:04:19.358Z,1009.88
2018-06-20T17:05:19.332Z,1009.91
2018-06-20T17:07:12.253Z,1009.89
2018-06-20T17:08:12.232Z,1009.78
2018-06-20T17:10:05.212Z,1009.76
2018-06-20T17:11:05.181Z,1009.74
2018-06-20T17:12:58.157Z,1009.78
2018-06-20T17:13:58.156Z,1009.72
2018-06-20T17:15:51.219Z,1009.69
2018-06-20T17:16:51.197Z,1009.74
2018-06-20T17:18:44.183Z,1009.70
2018-06-20T17:19:44.135Z,1009.67
2018-06-20T17:21:37.143Z,1009.63
2018-06-20T17:22:37.127Z,1009.64
2018-06-20T17:24:30.112Z,1009.64
2018-06-20T17:25:29.971Z,1009.67
2018-06-20T17:27:22.949Z,1009.62
2018-06-20T17:28:22.929Z,1009.59
2018-06-20T17:30:15.919Z,1009.57
2018-06-20T17:31:15.887Z,1009.62
2018-06-20T17:33:09.022Z,1009.61
2018-06-20T17:34:08.972Z,1009.66
2018-06-20T17:36:01.927Z,1009.68
2018-06-20T17:37:01.872Z,1009.59
2018-06-20T17:38:54.912Z,1009.62
2018-06-20T17:39:54.889Z,1009.59
2018-06-20T17:41:47.792Z,1009.59
2018-06-20T17:42:47.718Z,1009.58
2018-06-20T17:44:40.673Z,1009.48
2018-06-20T17:45:40.646Z,1009.49
2018-06-20T17:47:33.598Z,1009.50
2018-06-20T17:48:33.583Z,1009.48
2018-06-20T17:50:26.714Z,1009.48
2018-06-20T17:51:26.638Z,1009.43
2018-06-20T17:53:19.454Z,1009.44
2018-06-20T17:54:19.458Z,1009.44
2018-06-20T17:56:12.426Z,1009.41
2018-06-20T17:57:12.416Z,1009.44
2018-06-20T17:59:05.524Z,1009.38